Impacts TAF Board
For situational awareness. Not to be used for flight planning purposes.
IDs:

KLAS - Las Vegas/McCarran I, NV, US

Issued at 1130 UTC 25 Jun 2019
Updated at 1211 UTC 25 Jun 2019
Potential Impact None Slight Moderate High
Time<<26/01Z 26/02Z 26/03Z 26/04Z 26/05Z 26/06Z 26/07Z 26/08Z 26/09Z 26/10Z 26/11Z 26/12Z 26/13Z>>
Type PRVL PRVL PRVL PRVL PRVL PRVL PRVL PRVL PRVL PRVL PRVL PRVL PRVL
VIS >6 >6 >6 >6 >6 >6 >6 >6 >6 >6 >6 >6 >6
CIG 250 250 250 -- -- -- -- -- -- -- -- -- --
Cover BKN BKN BKN SCT SCT SCT SCT SCT SCT SCT SCT SCT SCT
FltCat VFR VFR VFR VFR VFR VFR VFR VFR VFR VFR VFR VFR VFR
WX -- -- -- -- -- -- -- -- -- -- -- -- --
WDir 190 190 190 200 200 200 200 200 200 200 200 200 200
WSpd 17 17 17 12 12 12 12 12 12 12 12 12 12
WGst 24 24 24 -- -- -- -- -- -- -- -- -- --
Raw TAF
KLAS 251130Z 2512/2618 18008KT P6SM SCT250
  FM251900 19017G24KT P6SM BKN250
  FM260400 20012KT P6SM SCT200


METAR Board
Radar Display
Forecast Discussion
For situational awareness. Not to be used for flight planning purposes.